Aviation Digital Data Service (ADDS)

Output produced by TAFs form (1445 UTC 29 July 2014)
found at http://aviationweather.gov/adds/tafs/
 
KHOB 291122Z 2912/3012 12008KT P6SM SCT100 BKN200 
     FM292200 15011KT P6SM SCT200